createdAt,value
2019-03-31T00:00:22.655Z,9.72
2019-03-31T00:01:22.830Z,9.79
2019-03-31T00:02:23.012Z,9.73
2019-03-31T00:03:23.187Z,9.82
2019-03-31T00:04:23.359Z,9.74
2019-03-31T00:05:24.180Z,9.61
2019-03-31T00:06:23.728Z,9.51
2019-03-31T00:07:23.910Z,9.55
2019-03-31T00:08:24.079Z,9.54
2019-03-31T00:09:24.252Z,9.50
2019-03-31T00:10:24.433Z,9.48
2019-03-31T00:11:24.601Z,9.48
2019-03-31T00:12:24.770Z,9.48
2019-03-31T00:13:24.947Z,9.47
2019-03-31T00:14:25.122Z,9.55
2019-03-31T00:15:25.297Z,9.54
2019-03-31T00:16:25.467Z,9.46
2019-03-31T00:17:25.642Z,9.39
2019-03-31T00:18:25.812Z,9.48
2019-03-31T00:19:25.989Z,9.48
2019-03-31T00:20:26.164Z,9.36
2019-03-31T00:21:26.339Z,9.40
2019-03-31T00:22:27.185Z,9.43
2019-03-31T00:23:26.732Z,9.41
2019-03-31T00:24:26.906Z,9.41
2019-03-31T00:25:27.095Z,9.50
2019-03-31T00:26:27.254Z,9.59
2019-03-31T00:27:27.427Z,9.51
2019-03-31T00:28:27.602Z,9.51
2019-03-31T00:29:27.777Z,9.47
2019-03-31T00:30:27.952Z,9.55
2019-03-31T00:31:28.130Z,9.47
2019-03-31T00:32:28.302Z,9.41
2019-03-31T00:33:28.478Z,9.39
2019-03-31T00:34:28.649Z,9.41
2019-03-31T00:35:28.823Z,9.41
2019-03-31T00:36:28.999Z,9.37
2019-03-31T00:37:29.169Z,9.32
2019-03-31T00:38:29.342Z,9.29
2019-03-31T00:39:29.511Z,9.31
2019-03-31T00:40:29.684Z,9.22
2019-03-31T00:41:29.859Z,9.28
2019-03-31T00:42:30.031Z,9.16
2019-03-31T00:43:30.207Z,9.22
2019-03-31T00:44:30.378Z,9.22
2019-03-31T00:45:30.551Z,9.16
2019-03-31T00:46:30.728Z,9.16
2019-03-31T00:47:30.899Z,9.14
2019-03-31T00:48:31.079Z,9.10
2019-03-31T00:49:31.257Z,9.19
2019-03-31T00:50:31.419Z,9.04
2019-03-31T00:51:31.595Z,9.02
2019-03-31T00:52:31.764Z,8.99
2019-03-31T00:53:31.949Z,8.87
2019-03-31T00:54:32.117Z,9.00
2019-03-31T00:55:32.290Z,8.85
2019-03-31T00:56:32.468Z,8.88
2019-03-31T00:57:32.633Z,8.84
2019-03-31T00:58:32.808Z,8.92
2019-03-31T00:59:32.982Z,8.92
2019-03-31T01:00:33.155Z,8.94
2019-03-31T01:01:36.749Z,8.88
2019-03-31T01:02:33.507Z,8.92
2019-03-31T01:03:33.677Z,8.95
2019-03-31T01:04:33.851Z,8.92
2019-03-31T01:05:34.027Z,8.91
2019-03-31T01:06:34.200Z,8.94
2019-03-31T01:07:34.373Z,8.95
2019-03-31T01:08:34.549Z,8.94
2019-03-31T01:09:34.720Z,9.00
2019-03-31T01:10:34.905Z,8.91
2019-03-31T01:11:35.066Z,8.88
2019-03-31T01:12:35.245Z,8.82
2019-03-31T01:13:35.420Z,8.79
2019-03-31T01:14:35.588Z,8.76
2019-03-31T01:15:35.761Z,8.74
2019-03-31T01:16:35.938Z,8.81
2019-03-31T01:17:36.123Z,8.66
2019-03-31T01:18:36.283Z,8.82
2019-03-31T01:19:36.457Z,8.67
2019-03-31T01:20:36.682Z,8.60
2019-03-31T01:21:36.854Z,8.64
2019-03-31T01:22:36.981Z,8.63
2019-03-31T01:23:37.154Z,8.61
2019-03-31T01:24:37.328Z,8.64
2019-03-31T01:25:37.500Z,8.69
2019-03-31T01:26:37.674Z,8.60
2019-03-31T01:27:37.849Z,8.64
2019-03-31T01:28:38.696Z,8.63
2019-03-31T01:29:38.250Z,8.64
2019-03-31T01:30:38.420Z,8.66
2019-03-31T01:31:49.703Z,8.63
2019-03-31T01:32:38.767Z,8.66
2019-03-31T01:33:38.942Z,8.64
2019-03-31T01:34:39.116Z,8.66
2019-03-31T01:35:39.294Z,8.69
2019-03-31T01:36:39.462Z,8.70
2019-03-31T01:37:39.645Z,8.67
2019-03-31T01:38:39.808Z,8.63
2019-03-31T01:39:40.011Z,8.63
2019-03-31T01:40:40.162Z,8.63
2019-03-31T01:41:40.319Z,8.61
2019-03-31T01:42:40.489Z,8.55
2019-03-31T01:43:40.660Z,8.52
2019-03-31T01:44:40.833Z,8.42
2019-03-31T01:45:41.012Z,8.45
2019-03-31T01:46:41.184Z,8.52
2019-03-31T01:47:41.353Z,8.36
2019-03-31T01:48:41.541Z,8.45
2019-03-31T01:49:41.702Z,8.37
2019-03-31T01:50:41.862Z,8.46
2019-03-31T01:51:42.059Z,8.34
2019-03-31T01:52:42.227Z,8.42
2019-03-31T01:53:42.406Z,8.27
2019-03-31T01:54:42.574Z,8.27
2019-03-31T01:55:42.752Z,8.27
2019-03-31T01:56:44.773Z,8.20
2019-03-31T01:57:43.100Z,8.20
2019-03-31T01:58:43.271Z,8.13
2019-03-31T01:59:43.452Z,8.13
2019-03-31T02:00:43.621Z,8.06
2019-03-31T02:01:43.793Z,8.05
2019-03-31T02:02:43.962Z,8.00
2019-03-31T02:03:44.141Z,7.97
2019-03-31T02:04:44.311Z,7.90
2019-03-31T02:05:44.486Z,7.94
2019-03-31T02:06:44.663Z,7.95
2019-03-31T02:07:44.833Z,7.95
2019-03-31T02:08:45.017Z,7.77
2019-03-31T02:09:45.181Z,7.85
2019-03-31T02:12:25.690Z,7.93
2019-03-31T02:13:25.864Z,7.90
2019-03-31T02:14:26.035Z,7.93
2019-03-31T02:15:26.208Z,7.90
2019-03-31T02:16:26.383Z,7.95
2019-03-31T02:17:26.559Z,7.91
2019-03-31T02:18:26.740Z,7.87
2019-03-31T02:19:26.904Z,7.94
2019-03-31T02:20:27.077Z,7.60
2019-03-31T02:21:27.260Z,7.56
2019-03-31T02:22:27.425Z,7.69
2019-03-31T02:23:27.597Z,7.83
2019-03-31T02:24:27.776Z,7.72
2019-03-31T02:25:27.956Z,7.72
2019-03-31T02:26:28.121Z,7.75
2019-03-31T02:27:28.290Z,7.79
2019-03-31T02:28:28.465Z,7.88
2019-03-31T02:29:28.640Z,7.80
2019-03-31T02:30:28.818Z,7.87
2019-03-31T02:31:29.000Z,7.97
2019-03-31T02:32:29.168Z,7.91
2019-03-31T02:33:29.341Z,7.87
2019-03-31T02:34:29.520Z,7.70
2019-03-31T02:35:29.694Z,7.42
2019-03-31T02:36:29.864Z,7.51
2019-03-31T02:37:30.043Z,7.53
2019-03-31T02:38:30.222Z,7.57
2019-03-31T02:39:30.389Z,7.63
2019-03-31T02:40:30.565Z,7.60
2019-03-31T02:41:30.841Z,7.60
2019-03-31T02:42:30.914Z,7.53
2019-03-31T02:43:31.080Z,7.58
2019-03-31T02:44:31.249Z,7.51
2019-03-31T02:45:31.431Z,7.57
2019-03-31T02:46:31.606Z,7.51
2019-03-31T02:47:31.782Z,7.43
2019-03-31T02:48:31.961Z,7.43
2019-03-31T02:49:32.129Z,7.38
2019-03-31T02:50:32.304Z,7.39
2019-03-31T02:51:32.480Z,7.31
2019-03-31T02:52:32.649Z,7.33
2019-03-31T02:53:32.822Z,7.31
2019-03-31T02:54:32.999Z,7.14
2019-03-31T02:55:33.164Z,7.00
2019-03-31T02:56:33.355Z,7.05
2019-03-31T02:57:33.529Z,7.11
2019-03-31T02:58:33.689Z,7.18
2019-03-31T02:59:33.860Z,7.18
2019-03-31T03:00:35.431Z,7.20
2019-03-31T03:01:34.231Z,7.20
2019-03-31T03:02:42.015Z,7.20
2019-03-31T03:03:34.585Z,7.29
2019-03-31T03:04:34.771Z,7.32
2019-03-31T03:05:34.935Z,7.32
2019-03-31T03:06:35.107Z,7.29
2019-03-31T03:07:35.283Z,7.28
2019-03-31T03:08:35.453Z,7.28
2019-03-31T03:09:35.626Z,7.18
2019-03-31T03:10:35.801Z,7.18
2019-03-31T03:11:35.971Z,7.18
2019-03-31T03:12:36.146Z,7.23
2019-03-31T03:13:36.317Z,7.13
2019-03-31T03:14:36.493Z,7.20
2019-03-31T03:15:37.282Z,7.24
2019-03-31T03:16:36.824Z,7.24
2019-03-31T03:17:37.005Z,7.25
2019-03-31T03:18:37.176Z,7.18
2019-03-31T03:19:37.379Z,7.24
2019-03-31T03:20:37.519Z,7.25
2019-03-31T03:21:37.692Z,7.07
2019-03-31T03:22:37.875Z,6.96
2019-03-31T03:23:38.056Z,6.96
2019-03-31T03:24:38.227Z,6.88
2019-03-31T03:25:54.549Z,7.02
2019-03-31T03:26:38.575Z,6.96
2019-03-31T03:27:38.746Z,6.87
2019-03-31T03:28:38.915Z,6.95
2019-03-31T03:29:39.108Z,7.07
2019-03-31T03:30:39.459Z,7.07
2019-03-31T03:31:39.444Z,7.03
2019-03-31T03:32:39.621Z,6.99
2019-03-31T03:33:39.802Z,6.92
2019-03-31T03:35:40.129Z,6.89
2019-03-31T03:36:43.306Z,6.87
2019-03-31T03:37:40.476Z,6.85
2019-03-31T03:38:40.649Z,6.87
2019-03-31T03:39:40.822Z,6.89
2019-03-31T03:40:40.997Z,6.92
2019-03-31T03:41:41.179Z,6.77
2019-03-31T03:42:41.398Z,6.78
2019-03-31T03:43:55.263Z,6.81
2019-03-31T03:44:41.737Z,6.78
2019-03-31T03:45:41.911Z,6.72
2019-03-31T03:46:42.089Z,6.79
2019-03-31T03:47:42.262Z,6.84
2019-03-31T03:48:42.452Z,6.82
2019-03-31T03:49:42.603Z,6.85
2019-03-31T03:50:42.780Z,6.85
2019-03-31T03:51:42.956Z,6.87
2019-03-31T03:52:43.136Z,6.89
2019-03-31T03:53:43.298Z,6.85
2019-03-31T03:54:43.474Z,6.87
2019-03-31T03:55:43.651Z,6.84
2019-03-31T03:56:43.820Z,6.87
2019-03-31T03:57:43.997Z,6.81
2019-03-31T03:58:44.164Z,6.81
2019-03-31T03:59:44.341Z,6.84
2019-03-31T04:00:44.518Z,6.82
2019-03-31T04:01:44.696Z,6.77
2019-03-31T04:02:44.872Z,6.67
2019-03-31T04:03:45.029Z,6.63
2019-03-31T04:04:45.203Z,6.63
2019-03-31T04:05:45.380Z,6.60
2019-03-31T04:06:45.555Z,6.57
2019-03-31T04:07:45.726Z,6.69
2019-03-31T04:08:45.899Z,6.59
2019-03-31T04:09:46.077Z,6.31
2019-03-31T04:10:46.261Z,6.17
2019-03-31T04:11:46.420Z,6.04
2019-03-31T04:12:46.592Z,5.89
2019-03-31T04:13:46.771Z,5.86
2019-03-31T04:14:46.943Z,5.99
2019-03-31T04:15:47.109Z,5.99
2019-03-31T04:16:47.283Z,6.02
2019-03-31T04:17:47.456Z,5.99
2019-03-31T04:18:47.638Z,5.87
2019-03-31T04:19:47.802Z,5.90
2019-03-31T04:20:47.975Z,5.89
2019-03-31T04:21:48.153Z,5.90
2019-03-31T04:22:48.324Z,5.80
2019-03-31T04:23:48.494Z,5.79
2019-03-31T04:24:48.675Z,5.65
2019-03-31T04:25:48.832Z,5.64
2019-03-31T04:26:49.005Z,5.79
2019-03-31T04:27:49.186Z,5.86
2019-03-31T04:28:49.368Z,5.89
2019-03-31T04:29:49.531Z,5.93
2019-03-31T04:30:49.697Z,5.93
2019-03-31T04:31:49.864Z,5.90
2019-03-31T04:32:50.042Z,6.08
2019-03-31T04:33:52.766Z,6.08
2019-03-31T04:34:50.396Z,6.04
2019-03-31T04:35:50.562Z,6.11
2019-03-31T04:36:50.739Z,6.16
2019-03-31T04:37:50.909Z,6.12
2019-03-31T04:38:51.081Z,6.20
2019-03-31T04:39:51.259Z,6.19
2019-03-31T04:40:51.441Z,6.26
2019-03-31T04:41:51.623Z,6.16
2019-03-31T04:42:51.786Z,6.22
2019-03-31T04:43:51.959Z,5.86
2019-03-31T04:44:52.182Z,5.72
2019-03-31T04:45:52.303Z,5.61
2019-03-31T04:46:52.480Z,5.69
2019-03-31T04:47:52.650Z,5.65
2019-03-31T04:48:52.817Z,5.54
2019-03-31T04:49:52.988Z,5.65
2019-03-31T04:50:53.155Z,5.53
2019-03-31T04:51:53.339Z,5.41
2019-03-31T04:52:53.505Z,5.47
2019-03-31T04:53:53.683Z,5.32
2019-03-31T04:54:53.857Z,5.38
2019-03-31T04:55:54.022Z,5.38
2019-03-31T04:56:54.195Z,5.32
2019-03-31T04:57:54.369Z,5.23
2019-03-31T04:58:54.539Z,5.12
2019-03-31T04:59:54.719Z,5.12
2019-03-31T05:00:54.892Z,5.05
2019-03-31T05:01:55.066Z,4.97
2019-03-31T05:02:55.242Z,5.02
2019-03-31T05:04:04.658Z,4.96
2019-03-31T05:04:55.594Z,5.11
2019-03-31T05:05:55.762Z,5.17
2019-03-31T05:06:55.938Z,5.28
2019-03-31T05:07:56.106Z,5.28
2019-03-31T05:08:56.288Z,5.30
2019-03-31T05:09:56.458Z,5.35
2019-03-31T05:10:56.624Z,5.29
2019-03-31T05:11:56.792Z,5.35
2019-03-31T05:12:57.964Z,5.35
2019-03-31T05:13:57.137Z,5.38
2019-03-31T05:14:57.310Z,5.35
2019-03-31T05:15:57.481Z,5.41
2019-03-31T05:16:57.655Z,5.36
2019-03-31T05:17:57.828Z,5.50
2019-03-31T05:18:57.995Z,5.46
2019-03-31T05:19:58.176Z,5.65
2019-03-31T05:20:58.348Z,5.54
2019-03-31T05:21:58.509Z,5.59
2019-03-31T05:22:58.699Z,5.62
2019-03-31T05:23:58.869Z,5.62
2019-03-31T05:24:59.040Z,5.71
2019-03-31T05:25:59.212Z,5.72
2019-03-31T05:26:59.388Z,5.83
2019-03-31T05:27:59.568Z,5.91
2019-03-31T05:28:59.731Z,5.86
2019-03-31T05:29:59.905Z,5.84
2019-03-31T05:31:00.081Z,5.94
2019-03-31T05:32:00.256Z,6.11
2019-03-31T05:33:00.425Z,6.08
2019-03-31T05:34:00.594Z,6.26
2019-03-31T05:35:00.766Z,6.20
2019-03-31T05:36:00.941Z,6.20
2019-03-31T05:37:01.122Z,6.30
2019-03-31T05:38:01.286Z,6.26
2019-03-31T05:39:01.458Z,6.26
2019-03-31T05:40:01.635Z,6.35
2019-03-31T05:41:01.805Z,6.39
2019-03-31T05:42:01.977Z,6.38
2019-03-31T05:43:02.152Z,6.51
2019-03-31T05:44:05.954Z,6.56
2019-03-31T05:45:02.484Z,6.60
2019-03-31T05:46:02.660Z,6.52
2019-03-31T05:49:47.639Z,6.75
2019-03-31T05:50:47.801Z,6.72
2019-03-31T05:51:47.976Z,6.66
2019-03-31T05:52:48.154Z,6.82
2019-03-31T05:53:48.327Z,6.75
2019-03-31T05:54:48.502Z,6.84
2019-03-31T05:55:48.673Z,6.89
2019-03-31T05:56:48.844Z,6.97
2019-03-31T05:57:49.018Z,7.05
2019-03-31T05:58:49.214Z,7.31
2019-03-31T05:59:49.367Z,7.50
2019-03-31T06:00:49.545Z,7.77
2019-03-31T06:01:49.757Z,7.91
2019-03-31T06:02:49.898Z,8.08
2019-03-31T06:03:50.072Z,8.33
2019-03-31T06:04:50.248Z,8.55
2019-03-31T06:05:50.432Z,8.78
2019-03-31T06:06:50.595Z,9.04
2019-03-31T06:07:50.779Z,9.13
2019-03-31T06:08:50.947Z,9.19
2019-03-31T06:09:51.121Z,9.18
2019-03-31T06:10:51.382Z,9.22
2019-03-31T06:11:53.435Z,9.26
2019-03-31T06:12:51.654Z,9.28
2019-03-31T06:13:51.820Z,9.84
2019-03-31T06:14:51.996Z,9.94
2019-03-31T06:15:52.170Z,9.87
2019-03-31T06:16:52.348Z,10.23
2019-03-31T06:17:52.527Z,10.48
2019-03-31T06:18:52.706Z,10.56
2019-03-31T06:19:52.890Z,10.48
2019-03-31T06:20:53.064Z,10.76
2019-03-31T06:21:53.237Z,10.42
2019-03-31T06:22:53.418Z,10.61
2019-03-31T06:23:53.601Z,10.74
2019-03-31T06:24:53.773Z,10.90
2019-03-31T06:25:54.063Z,10.99
2019-03-31T06:26:54.125Z,10.86
2019-03-31T06:27:54.308Z,10.99
2019-03-31T06:28:54.488Z,11.07
2019-03-31T06:29:54.744Z,11.14
2019-03-31T06:30:54.847Z,11.37
2019-03-31T06:31:55.025Z,11.68
2019-03-31T06:32:55.666Z,11.80
2019-03-31T06:33:55.389Z,11.91
2019-03-31T06:34:55.565Z,12.02
2019-03-31T06:35:55.739Z,11.91
2019-03-31T06:36:55.920Z,12.03
2019-03-31T06:37:56.095Z,12.03
2019-03-31T06:38:56.273Z,12.22
2019-03-31T06:39:56.456Z,12.10
2019-03-31T06:40:56.643Z,12.15
2019-03-31T06:41:56.810Z,12.12
2019-03-31T06:42:56.992Z,12.02
2019-03-31T06:43:57.174Z,11.68
2019-03-31T06:44:57.355Z,11.73
2019-03-31T06:45:57.531Z,11.86
2019-03-31T06:46:57.711Z,11.37
2019-03-31T06:47:57.899Z,11.29
2019-03-31T06:48:58.067Z,11.65
2019-03-31T06:49:58.246Z,11.72
2019-03-31T06:50:58.432Z,11.70
2019-03-31T06:51:58.620Z,11.70
2019-03-31T06:52:58.804Z,11.41
2019-03-31T06:53:58.984Z,10.99
2019-03-31T06:54:59.167Z,10.97
2019-03-31T06:55:59.349Z,10.41
2019-03-31T06:56:59.539Z,10.42
2019-03-31T06:57:59.713Z,10.82
2019-03-31T06:58:59.893Z,11.36
2019-03-31T07:00:00.287Z,11.78
2019-03-31T07:01:00.254Z,12.29
2019-03-31T07:02:03.016Z,12.50
2019-03-31T07:03:00.618Z,12.87
2019-03-31T07:04:00.800Z,13.12
2019-03-31T07:05:01.843Z,13.28
2019-03-31T07:06:01.167Z,13.19
2019-03-31T07:07:01.338Z,13.46
2019-03-31T07:08:02.208Z,13.72
2019-03-31T07:09:01.771Z,13.97
2019-03-31T07:10:01.970Z,14.14
2019-03-31T07:11:02.150Z,14.30
2019-03-31T07:12:02.307Z,14.15
2019-03-31T07:13:02.498Z,13.86
2019-03-31T07:14:02.672Z,13.89
2019-03-31T07:15:02.860Z,13.49
2019-03-31T07:16:03.040Z,13.33
2019-03-31T07:17:03.221Z,12.97
2019-03-31T07:18:03.403Z,12.76
2019-03-31T07:19:03.589Z,12.64
2019-03-31T07:20:03.796Z,12.46
2019-03-31T07:21:04.959Z,12.15
2019-03-31T07:22:04.143Z,12.15
2019-03-31T07:23:04.317Z,11.70
2019-03-31T07:24:04.505Z,11.91
2019-03-31T07:25:04.692Z,12.22
2019-03-31T07:26:04.867Z,12.10
2019-03-31T07:27:05.036Z,12.58
2019-03-31T07:28:05.218Z,13.04
2019-03-31T07:29:05.405Z,13.23
2019-03-31T07:30:07.160Z,13.71
2019-03-31T07:31:05.767Z,14.28
2019-03-31T07:32:06.721Z,14.53
2019-03-31T07:33:06.146Z,14.94
2019-03-31T07:34:06.333Z,14.73
2019-03-31T07:35:17.891Z,14.92
2019-03-31T07:36:06.692Z,14.78
2019-03-31T07:37:06.871Z,15.06
2019-03-31T07:38:07.056Z,15.14
2019-03-31T07:39:07.347Z,15.40
2019-03-31T07:40:07.448Z,15.09
2019-03-31T07:41:13.138Z,14.96
2019-03-31T07:42:07.842Z,14.73
2019-03-31T07:43:07.992Z,14.96
2019-03-31T07:44:08.156Z,14.92
2019-03-31T07:45:08.335Z,14.99
2019-03-31T07:46:08.519Z,15.06
2019-03-31T07:47:08.702Z,15.54
2019-03-31T07:48:08.886Z,15.67
2019-03-31T07:49:09.065Z,15.91
2019-03-31T07:50:09.251Z,15.98
2019-03-31T07:51:09.419Z,15.68
2019-03-31T07:52:09.606Z,15.61
2019-03-31T07:53:09.796Z,15.47
2019-03-31T07:54:09.974Z,15.19
2019-03-31T07:55:10.166Z,15.29
2019-03-31T07:56:10.355Z,14.59
2019-03-31T07:57:10.534Z,14.45
2019-03-31T07:58:10.781Z,14.97
2019-03-31T07:59:10.949Z,14.35
2019-03-31T08:00:11.090Z,13.93
2019-03-31T08:01:11.293Z,13.41
2019-03-31T08:02:11.461Z,12.50
2019-03-31T08:03:11.642Z,12.75
2019-03-31T08:04:11.822Z,13.15
2019-03-31T08:05:12.004Z,13.27
2019-03-31T08:06:12.185Z,13.18
2019-03-31T08:07:12.376Z,13.23
2019-03-31T08:08:12.565Z,13.41
2019-03-31T08:09:12.740Z,13.54
2019-03-31T08:10:12.906Z,13.56
2019-03-31T08:11:13.090Z,13.49
2019-03-31T08:12:13.276Z,13.42
2019-03-31T08:13:14.447Z,13.47
2019-03-31T08:14:13.639Z,12.86
2019-03-31T08:15:13.816Z,13.05
2019-03-31T08:16:14.002Z,12.98
2019-03-31T08:17:14.182Z,12.73
2019-03-31T08:18:14.363Z,12.83
2019-03-31T08:19:14.548Z,12.78
2019-03-31T08:20:14.725Z,12.79
2019-03-31T08:21:14.919Z,12.94
2019-03-31T08:22:15.091Z,13.15
2019-03-31T08:23:15.278Z,13.12
2019-03-31T08:24:15.458Z,13.19
2019-03-31T08:25:15.634Z,13.27
2019-03-31T08:26:15.820Z,13.19
2019-03-31T08:27:15.999Z,13.18
2019-03-31T08:28:16.188Z,13.18
2019-03-31T08:29:16.360Z,13.19
2019-03-31T08:30:16.569Z,12.80
2019-03-31T08:31:16.718Z,12.53
2019-03-31T08:32:16.902Z,12.68
2019-03-31T08:33:17.085Z,12.85
2019-03-31T08:34:17.269Z,13.15
2019-03-31T08:35:17.442Z,13.19
2019-03-31T08:36:17.624Z,13.67
2019-03-31T08:37:17.812Z,13.96
2019-03-31T08:38:17.992Z,13.57
2019-03-31T08:39:18.165Z,13.74
2019-03-31T08:40:18.347Z,13.99
2019-03-31T08:41:18.541Z,13.79
2019-03-31T08:42:18.719Z,14.20
2019-03-31T08:43:18.889Z,13.87
2019-03-31T08:44:19.069Z,13.72
2019-03-31T08:45:19.253Z,14.53
2019-03-31T08:46:19.433Z,15.03
2019-03-31T08:47:19.621Z,15.42
2019-03-31T08:48:19.796Z,14.97
2019-03-31T08:49:19.977Z,14.91
2019-03-31T08:50:20.157Z,13.99
2019-03-31T08:51:20.336Z,14.22
2019-03-31T08:52:20.520Z,14.59
2019-03-31T08:53:20.705Z,13.57
2019-03-31T08:54:20.880Z,14.25
2019-03-31T08:55:21.063Z,14.58
2019-03-31T08:56:21.249Z,15.42
2019-03-31T08:57:21.433Z,15.97
2019-03-31T08:58:21.619Z,16.43
2019-03-31T08:59:21.806Z,16.50
2019-03-31T09:00:21.988Z,16.66
2019-03-31T09:01:22.170Z,15.22
2019-03-31T09:02:22.369Z,14.72
2019-03-31T09:03:22.546Z,14.05
2019-03-31T09:04:22.738Z,14.44
2019-03-31T09:05:22.913Z,14.12
2019-03-31T09:06:23.091Z,14.41
2019-03-31T09:07:23.268Z,14.65
2019-03-31T09:08:23.451Z,15.35
2019-03-31T09:09:23.630Z,15.58
2019-03-31T09:10:23.824Z,15.94
2019-03-31T09:11:24.004Z,16.01
2019-03-31T09:12:24.177Z,16.38
2019-03-31T09:13:24.368Z,16.47
2019-03-31T09:14:24.548Z,16.20
2019-03-31T09:15:24.736Z,16.43
2019-03-31T09:16:24.914Z,16.53
2019-03-31T09:17:25.099Z,16.69
2019-03-31T09:18:25.273Z,16.29
2019-03-31T09:19:25.462Z,16.09
2019-03-31T09:20:27.831Z,15.98
2019-03-31T09:21:25.887Z,15.40
2019-03-31T09:22:26.064Z,15.84
2019-03-31T09:23:26.252Z,15.86
2019-03-31T09:24:26.432Z,15.88
2019-03-31T09:25:26.607Z,16.01
2019-03-31T09:26:26.790Z,15.94
2019-03-31T09:27:26.981Z,15.90
2019-03-31T09:28:27.152Z,15.80
2019-03-31T09:29:27.349Z,15.80
2019-03-31T09:30:29.452Z,15.94
2019-03-31T09:31:27.655Z,15.98
2019-03-31T09:32:30.244Z,15.77
2019-03-31T09:33:28.056Z,15.90
2019-03-31T09:34:28.241Z,15.94
2019-03-31T09:35:29.622Z,16.32
2019-03-31T09:36:29.269Z,16.12
2019-03-31T09:37:28.817Z,16.20
2019-03-31T09:38:28.999Z,16.12
2019-03-31T09:39:29.194Z,16.21
2019-03-31T09:40:29.365Z,16.47
2019-03-31T09:41:29.661Z,16.57
2019-03-31T09:42:29.716Z,15.49
2019-03-31T09:43:29.903Z,15.09
2019-03-31T09:44:30.479Z,15.44
2019-03-31T09:45:30.257Z,15.57
2019-03-31T09:46:31.836Z,15.47
2019-03-31T09:47:30.644Z,15.57
2019-03-31T09:48:30.823Z,15.65
2019-03-31T09:49:30.996Z,15.84
2019-03-31T09:50:31.178Z,15.77
2019-03-31T09:51:31.361Z,15.77
2019-03-31T09:52:31.546Z,15.97
2019-03-31T09:53:31.720Z,15.91
2019-03-31T09:54:31.903Z,16.15
2019-03-31T09:55:32.781Z,16.32
2019-03-31T09:56:32.326Z,16.61
2019-03-31T09:57:32.509Z,16.04
2019-03-31T09:58:32.701Z,16.13
2019-03-31T09:59:32.867Z,15.95
2019-03-31T10:00:33.051Z,15.37
2019-03-31T10:01:33.238Z,15.44
2019-03-31T10:02:33.420Z,15.82
2019-03-31T10:03:33.592Z,16.17
2019-03-31T10:04:33.774Z,16.26
2019-03-31T10:05:33.959Z,16.58
2019-03-31T10:06:34.159Z,16.68
2019-03-31T10:07:34.311Z,16.65
2019-03-31T10:08:34.496Z,16.66
2019-03-31T10:09:34.677Z,15.91
2019-03-31T10:10:34.857Z,16.00
2019-03-31T10:11:35.047Z,15.86
2019-03-31T10:12:36.427Z,15.84
2019-03-31T10:13:35.354Z,15.82
2019-03-31T10:14:35.530Z,16.00
2019-03-31T10:15:35.714Z,16.39
2019-03-31T10:16:35.896Z,16.69
2019-03-31T10:17:36.093Z,16.72
2019-03-31T10:18:36.269Z,17.16
2019-03-31T10:19:36.454Z,17.67
2019-03-31T10:20:36.635Z,17.51
2019-03-31T10:21:36.828Z,17.72
2019-03-31T10:22:37.004Z,17.72
2019-03-31T10:23:37.181Z,18.01
2019-03-31T10:24:37.361Z,18.20
2019-03-31T10:25:37.546Z,18.04
2019-03-31T10:26:37.726Z,18.08
2019-03-31T10:27:37.909Z,17.87
2019-03-31T10:28:38.145Z,17.63
2019-03-31T10:29:38.294Z,17.71
2019-03-31T10:30:38.479Z,17.72
2019-03-31T10:31:38.655Z,17.70
2019-03-31T10:32:40.032Z,17.79
2019-03-31T10:33:39.096Z,17.90
2019-03-31T10:34:39.272Z,17.90
2019-03-31T10:35:39.454Z,17.76
2019-03-31T10:36:44.581Z,17.78
2019-03-31T10:37:39.814Z,18.00
2019-03-31T10:38:39.996Z,17.74
2019-03-31T10:39:40.183Z,17.80
2019-03-31T10:40:40.372Z,17.64
2019-03-31T10:41:40.545Z,17.68
2019-03-31T10:42:40.730Z,17.70
2019-03-31T10:43:40.913Z,17.54
2019-03-31T10:44:41.104Z,17.83
2019-03-31T10:45:41.290Z,17.90
2019-03-31T10:46:41.499Z,17.76
2019-03-31T10:47:41.652Z,17.67
2019-03-31T10:48:41.841Z,17.57
2019-03-31T10:49:42.020Z,17.60
2019-03-31T10:50:42.203Z,17.87
2019-03-31T10:51:42.404Z,18.03
2019-03-31T10:52:42.564Z,18.26
2019-03-31T10:53:42.753Z,18.33
2019-03-31T10:54:43.788Z,18.40
2019-03-31T10:55:43.133Z,18.35
2019-03-31T10:56:43.279Z,18.49
2019-03-31T10:57:43.461Z,18.18
2019-03-31T10:58:43.634Z,17.94
2019-03-31T10:59:43.819Z,17.52
2019-03-31T11:00:45.006Z,17.27
2019-03-31T11:01:44.227Z,17.16
2019-03-31T11:02:44.490Z,17.16
2019-03-31T11:03:44.604Z,16.94
2019-03-31T11:04:44.772Z,17.08
2019-03-31T11:05:44.957Z,17.04
2019-03-31T11:06:58.276Z,17.06
2019-03-31T11:07:46.560Z,17.19
2019-03-31T11:08:45.500Z,17.36
2019-03-31T11:09:47.300Z,17.14
2019-03-31T11:11:45.988Z,17.11
2019-03-31T11:12:46.160Z,16.96
2019-03-31T11:13:46.344Z,16.83
2019-03-31T11:14:46.527Z,16.83
2019-03-31T11:15:46.722Z,16.75
2019-03-31T11:16:46.889Z,16.69
2019-03-31T11:17:47.078Z,16.83
2019-03-31T11:18:47.252Z,16.79
2019-03-31T11:19:47.442Z,16.69
2019-03-31T11:20:47.611Z,16.56
2019-03-31T11:21:47.792Z,16.61
2019-03-31T11:22:47.977Z,16.58
2019-03-31T11:23:48.157Z,16.50
2019-03-31T11:24:48.339Z,16.29
2019-03-31T11:25:48.513Z,16.56
2019-03-31T11:26:48.690Z,16.51
2019-03-31T11:27:48.873Z,16.46
2019-03-31T11:28:49.055Z,16.53
2019-03-31T11:29:49.236Z,16.57
2019-03-31T11:30:50.621Z,16.58
2019-03-31T11:31:49.542Z,16.66
2019-03-31T11:32:50.297Z,16.90
2019-03-31T11:33:49.857Z,16.89
2019-03-31T11:34:50.043Z,16.86
2019-03-31T11:35:50.223Z,16.87
2019-03-31T11:36:50.408Z,17.14
2019-03-31T11:37:50.579Z,17.19
2019-03-31T11:38:50.782Z,16.93
2019-03-31T11:39:50.931Z,16.99
2019-03-31T11:40:51.104Z,16.84
2019-03-31T11:41:52.308Z,16.75
2019-03-31T11:42:52.204Z,16.68
2019-03-31T11:43:51.643Z,16.83
2019-03-31T11:44:51.813Z,16.89
2019-03-31T11:45:51.999Z,16.93
2019-03-31T11:46:52.189Z,16.75
2019-03-31T11:47:52.364Z,16.86
2019-03-31T11:48:52.544Z,17.05
2019-03-31T11:49:52.722Z,17.19
2019-03-31T11:50:52.908Z,17.39
2019-03-31T11:51:53.088Z,17.57
2019-03-31T11:52:53.283Z,17.36
2019-03-31T11:53:53.461Z,17.31
2019-03-31T11:54:53.644Z,16.79
2019-03-31T11:55:53.816Z,16.69
2019-03-31T11:56:54.005Z,16.42
2019-03-31T11:57:54.186Z,16.64
2019-03-31T11:58:54.364Z,16.84
2019-03-31T11:59:54.550Z,17.22
2019-03-31T12:00:54.731Z,17.34
2019-03-31T12:01:54.910Z,16.97
2019-03-31T12:02:55.091Z,16.84
2019-03-31T12:03:55.273Z,16.97
2019-03-31T12:04:55.454Z,17.06
2019-03-31T12:05:55.648Z,16.53
2019-03-31T12:06:55.818Z,16.02
2019-03-31T12:07:56.002Z,16.20
2019-03-31T12:08:56.182Z,16.28
2019-03-31T12:09:56.362Z,16.20
2019-03-31T12:10:56.543Z,16.31
2019-03-31T12:11:56.724Z,16.33
2019-03-31T12:12:56.909Z,16.36
2019-03-31T12:13:57.091Z,16.49
2019-03-31T12:15:00.644Z,16.60
2019-03-31T12:15:58.320Z,16.66
2019-03-31T12:16:57.628Z,16.79
2019-03-31T12:17:57.811Z,16.87
2019-03-31T12:18:58.845Z,16.96
2019-03-31T12:19:58.150Z,17.06
2019-03-31T12:20:58.340Z,17.27
2019-03-31T12:21:58.523Z,17.26
2019-03-31T12:22:58.707Z,17.06
2019-03-31T12:23:58.894Z,16.87
2019-03-31T12:24:59.061Z,16.81
2019-03-31T12:25:59.246Z,16.83
2019-03-31T12:26:59.424Z,16.74
2019-03-31T12:27:59.609Z,16.64
2019-03-31T12:28:59.785Z,16.47
2019-03-31T12:29:59.968Z,16.26
2019-03-31T12:31:00.149Z,16.28
2019-03-31T12:32:00.325Z,16.13
2019-03-31T12:33:00.546Z,16.32
2019-03-31T12:34:00.684Z,16.38
2019-03-31T12:35:00.863Z,16.50
2019-03-31T12:36:01.046Z,16.61
2019-03-31T12:37:01.238Z,16.58
2019-03-31T12:38:01.405Z,16.72
2019-03-31T12:39:01.587Z,16.75
2019-03-31T12:40:01.769Z,16.49
2019-03-31T12:41:01.953Z,16.53
2019-03-31T12:42:02.144Z,16.58
2019-03-31T12:43:02.314Z,16.68
2019-03-31T12:44:02.519Z,16.69
2019-03-31T12:45:02.703Z,16.65
2019-03-31T12:46:02.858Z,16.78
2019-03-31T12:47:03.045Z,16.81
2019-03-31T12:48:03.229Z,16.78
2019-03-31T12:49:03.400Z,16.79
2019-03-31T12:50:03.602Z,16.79
2019-03-31T12:51:03.752Z,16.86
2019-03-31T12:52:03.936Z,16.78
2019-03-31T12:53:04.116Z,16.72
2019-03-31T12:54:04.302Z,16.84
2019-03-31T12:55:04.481Z,16.68
2019-03-31T12:56:04.657Z,16.72
2019-03-31T12:57:04.858Z,16.83
2019-03-31T12:58:06.839Z,16.47
2019-03-31T12:59:05.283Z,16.41
2019-03-31T13:00:05.439Z,16.54
2019-03-31T13:01:07.271Z,16.46
2019-03-31T13:02:05.762Z,16.47
2019-03-31T13:03:05.945Z,16.36
2019-03-31T13:04:06.132Z,16.35
2019-03-31T13:05:06.303Z,16.39
2019-03-31T13:06:06.496Z,16.50
2019-03-31T13:07:06.672Z,16.50
2019-03-31T13:08:06.848Z,16.38
2019-03-31T13:09:07.027Z,16.21
2019-03-31T13:10:07.207Z,16.32
2019-03-31T13:11:07.389Z,16.21
2019-03-31T13:12:07.565Z,16.13
2019-03-31T13:13:07.838Z,16.00